sensor_id;sensor_type;location;lat;lon;timestamp;P1;durP1;ratioP1;P2;durP2;ratioP2
12900;SDS011;6518;50.930;5.344;2023-07-29T00:00:40;3.10;;;1.58;;
12900;SDS011;6518;50.930;5.344;2023-07-29T00:03:07;3.03;;;1.60;;
12900;SDS011;6518;50.930;5.344;2023-07-29T00:05:34;4.82;;;1.80;;
12900;SDS011;6518;50.930;5.344;2023-07-29T00:08:01;4.05;;;1.90;;
12900;SDS011;6518;50.930;5.344;2023-07-29T00:10:28;3.47;;;1.90;;
12900;SDS011;6518;50.930;5.344;2023-07-29T00:12:57;1.60;;;1.50;;
12900;SDS011;6518;50.930;5.344;2023-07-29T00:15:25;2.83;;;1.80;;
12900;SDS011;6518;50.930;5.344;2023-07-29T00:17:52;5.63;;;1.98;;
12900;SDS011;6518;50.930;5.344;2023-07-29T00:20:19;2.60;;;1.70;;
12900;SDS011;6518;50.930;5.344;2023-07-29T00:22:46;3.88;;;1.90;;
12900;SDS011;6518;50.930;5.344;2023-07-29T00:25:14;2.92;;;2.20;;
12900;SDS011;6518;50.930;5.344;2023-07-29T00:27:41;4.00;;;2.20;;
12900;SDS011;6518;50.930;5.344;2023-07-29T00:30:08;1.90;;;1.52;;
12900;SDS011;6518;50.930;5.344;2023-07-29T00:32:38;1.77;;;1.60;;
12900;SDS011;6518;50.930;5.344;2023-07-29T00:35:06;9.95;;;2.40;;
12900;SDS011;6518;50.930;5.344;2023-07-29T00:37:33;3.20;;;1.60;;
12900;SDS011;6518;50.930;5.344;2023-07-29T00:40:02;4.72;;;1.80;;
12900;SDS011;6518;50.930;5.344;2023-07-29T00:42:29;2.22;;;2.03;;
12900;SDS011;6518;50.930;5.344;2023-07-29T00:44:56;2.25;;;1.98;;
12900;SDS011;6518;50.930;5.344;2023-07-29T00:47:23;3.97;;;1.75;;
12900;SDS011;6518;50.930;5.344;2023-07-29T00:49:52;2.95;;;2.10;;
12900;SDS011;6518;50.930;5.344;2023-07-29T00:52:19;2.65;;;1.98;;
12900;SDS011;6518;50.930;5.344;2023-07-29T00:54:46;4.10;;;1.80;;
12900;SDS011;6518;50.930;5.344;2023-07-29T00:57:13;3.47;;;1.80;;
12900;SDS011;6518;50.930;5.344;2023-07-29T00:59:41;4.85;;;2.10;;
12900;SDS011;6518;50.930;5.344;2023-07-29T01:02:08;2.50;;;2.10;;
12900;SDS011;6518;50.930;5.344;2023-07-29T01:04:36;4.45;;;1.88;;
12900;SDS011;6518;50.930;5.344;2023-07-29T01:07:06;3.40;;;1.85;;
12900;SDS011;6518;50.930;5.344;2023-07-29T01:09:40;5.18;;;1.98;;
12900;SDS011;6518;50.930;5.344;2023-07-29T01:12:16;2.05;;;1.88;;
12900;SDS011;6518;50.930;5.344;2023-07-29T01:14:51;4.32;;;1.92;;
12900;SDS011;6518;50.930;5.344;2023-07-29T01:17:27;2.55;;;2.00;;
12900;SDS011;6518;50.930;5.344;2023-07-29T01:20:00;2.88;;;1.80;;
12900;SDS011;6518;50.930;5.344;2023-07-29T01:22:32;4.68;;;2.13;;
12900;SDS011;6518;50.930;5.344;2023-07-29T01:25:01;3.10;;;1.90;;
12900;SDS011;6518;50.930;5.344;2023-07-29T01:27:29;3.20;;;1.83;;
12900;SDS011;6518;50.930;5.344;2023-07-29T01:29:56;5.88;;;2.10;;
12900;SDS011;6518;50.930;5.344;2023-07-29T01:32:25;4.28;;;2.10;;
12900;SDS011;6518;50.930;5.344;2023-07-29T01:34:56;2.10;;;1.85;;
12900;SDS011;6518;50.930;5.344;2023-07-29T01:37:26;8.23;;;2.22;;
12900;SDS011;6518;50.930;5.344;2023-07-29T01:39:58;4.40;;;1.85;;
12900;SDS011;6518;50.930;5.344;2023-07-29T01:42:28;1.98;;;1.77;;
12900;SDS011;6518;50.930;5.344;2023-07-29T01:44:55;5.50;;;2.35;;
12900;SDS011;6518;50.930;5.344;2023-07-29T01:47:22;6.28;;;2.13;;
12900;SDS011;6518;50.930;5.344;2023-07-29T01:49:49;2.75;;;1.88;;
12900;SDS011;6518;50.930;5.344;2023-07-29T01:52:16;2.10;;;1.90;;
12900;SDS011;6518;50.930;5.344;2023-07-29T01:54:43;2.15;;;1.95;;
12900;SDS011;6518;50.930;5.344;2023-07-29T01:57:11;3.83;;;1.92;;
12900;SDS011;6518;50.930;5.344;2023-07-29T01:59:38;3.97;;;2.05;;
12900;SDS011;6518;50.930;5.344;2023-07-29T02:02:05;2.60;;;1.90;;
12900;SDS011;6518;50.930;5.344;2023-07-29T02:04:32;4.50;;;2.10;;
12900;SDS011;6518;50.930;5.344;2023-07-29T02:06:59;1.98;;;1.50;;
12900;SDS011;6518;50.930;5.344;2023-07-29T02:09:26;7.10;;;2.00;;
12900;SDS011;6518;50.930;5.344;2023-07-29T02:11:53;2.22;;;1.90;;
12900;SDS011;6518;50.930;5.344;2023-07-29T02:14:21;4.18;;;2.00;;
12900;SDS011;6518;50.930;5.344;2023-07-29T02:16:48;3.83;;;1.73;;
12900;SDS011;6518;50.930;5.344;2023-07-29T02:19:15;2.20;;;1.80;;
12900;SDS011;6518;50.930;5.344;2023-07-29T02:21:42;3.15;;;1.80;;
12900;SDS011;6518;50.930;5.344;2023-07-29T02:24:09;2.33;;;2.13;;
12900;SDS011;6518;50.930;5.344;2023-07-29T02:26:36;2.28;;;2.08;;
12900;SDS011;6518;50.930;5.344;2023-07-29T02:29:02;2.13;;;1.80;;
12900;SDS011;6518;50.930;5.344;2023-07-29T02:31:31;3.35;;;2.08;;
12900;SDS011;6518;50.930;5.344;2023-07-29T02:33:59;3.78;;;1.80;;
12900;SDS011;6518;50.930;5.344;2023-07-29T02:36:26;2.55;;;1.90;;
12900;SDS011;6518;50.930;5.344;2023-07-29T02:38:53;3.28;;;1.80;;
12900;SDS011;6518;50.930;5.344;2023-07-29T02:41:20;3.92;;;1.70;;
12900;SDS011;6518;50.930;5.344;2023-07-29T02:43:48;2.03;;;1.50;;
12900;SDS011;6518;50.930;5.344;2023-07-29T02:46:15;1.70;;;1.60;;
12900;SDS011;6518;50.930;5.344;2023-07-29T02:48:45;2.72;;;1.70;;
12900;SDS011;6518;50.930;5.344;2023-07-29T02:51:12;5.82;;;1.70;;
12900;SDS011;6518;50.930;5.344;2023-07-29T02:53:38;4.78;;;1.80;;
12900;SDS011;6518;50.930;5.344;2023-07-29T02:56:05;2.67;;;1.48;;
12900;SDS011;6518;50.930;5.344;2023-07-29T02:58:34;2.08;;;1.77;;
12900;SDS011;6518;50.930;5.344;2023-07-29T03:01:01;2.45;;;1.40;;
12900;SDS011;6518;50.930;5.344;2023-07-29T03:03:29;2.80;;;1.45;;
12900;SDS011;6518;50.930;5.344;2023-07-29T03:06:01;1.63;;;1.30;;
12900;SDS011;6518;50.930;5.344;2023-07-29T03:08:28;2.88;;;1.67;;
12900;SDS011;6518;50.930;5.344;2023-07-29T03:10:55;2.00;;;1.70;;
12900;SDS011;6518;50.930;5.344;2023-07-29T03:13:23;4.90;;;1.60;;
12900;SDS011;6518;50.930;5.344;2023-07-29T03:15:50;1.88;;;1.40;;
12900;SDS011;6518;50.930;5.344;2023-07-29T03:18:17;2.58;;;1.42;;
12900;SDS011;6518;50.930;5.344;2023-07-29T03:20:44;2.00;;;1.35;;
12900;SDS011;6518;50.930;5.344;2023-07-29T03:23:12;2.65;;;1.60;;
12900;SDS011;6518;50.930;5.344;2023-07-29T03:25:38;3.63;;;1.65;;
12900;SDS011;6518;50.930;5.344;2023-07-29T03:28:05;1.90;;;1.63;;
12900;SDS011;6518;50.930;5.344;2023-07-29T03:30:32;2.85;;;1.58;;
12900;SDS011;6518;50.930;5.344;2023-07-29T03:32:59;3.00;;;1.70;;
12900;SDS011;6518;50.930;5.344;2023-07-29T03:35:26;4.10;;;1.73;;
12900;SDS011;6518;50.930;5.344;2023-07-29T03:37:52;1.67;;;1.40;;
12900;SDS011;6518;50.930;5.344;2023-07-29T03:40:20;1.85;;;1.27;;
12900;SDS011;6518;50.930;5.344;2023-07-29T03:42:47;2.05;;;1.50;;
12900;SDS011;6518;50.930;5.344;2023-07-29T03:45:14;3.75;;;1.60;;
12900;SDS011;6518;50.930;5.344;2023-07-29T03:47:41;1.95;;;1.48;;
12900;SDS011;6518;50.930;5.344;2023-07-29T03:50:08;3.80;;;1.52;;
12900;SDS011;6518;50.930;5.344;2023-07-29T03:52:35;4.18;;;1.45;;
12900;SDS011;6518;50.930;5.344;2023-07-29T03:55:02;2.20;;;1.73;;
12900;SDS011;6518;50.930;5.344;2023-07-29T03:57:31;1.88;;;1.70;;
12900;SDS011;6518;50.930;5.344;2023-07-29T03:59:58;3.60;;;1.65;;
12900;SDS011;6518;50.930;5.344;2023-07-29T04:02:25;3.88;;;1.67;;
12900;SDS011;6518;50.930;5.344;2023-07-29T04:04:51;3.80;;;2.03;;
12900;SDS011;6518;50.930;5.344;2023-07-29T04:07:18;3.38;;;2.10;;
12900;SDS011;6518;50.930;5.344;2023-07-29T04:09:45;3.83;;;1.85;;
12900;SDS011;6518;50.930;5.344;2023-07-29T04:12:12;3.65;;;1.77;;
12900;SDS011;6518;50.930;5.344;2023-07-29T04:14:40;1.88;;;1.70;;
12900;SDS011;6518;50.930;5.344;2023-07-29T04:17:07;3.03;;;1.83;;
12900;SDS011;6518;50.930;5.344;2023-07-29T04:19:34;2.95;;;1.77;;
12900;SDS011;6518;50.930;5.344;2023-07-29T04:22:01;8.70;;;2.08;;
12900;SDS011;6518;50.930;5.344;2023-07-29T04:24:28;3.40;;;2.08;;
12900;SDS011;6518;50.930;5.344;2023-07-29T04:26:55;2.85;;;1.95;;
12900;SDS011;6518;50.930;5.344;2023-07-29T04:29:21;6.72;;;2.05;;
12900;SDS011;6518;50.930;5.344;2023-07-29T04:31:50;2.80;;;2.03;;
12900;SDS011;6518;50.930;5.344;2023-07-29T04:34:17;5.57;;;2.10;;
12900;SDS011;6518;50.930;5.344;2023-07-29T04:36:45;3.13;;;1.85;;
12900;SDS011;6518;50.930;5.344;2023-07-29T04:39:12;3.95;;;2.40;;
12900;SDS011;6518;50.930;5.344;2023-07-29T04:41:38;3.25;;;2.10;;
12900;SDS011;6518;50.930;5.344;2023-07-29T04:44:05;3.22;;;1.73;;
12900;SDS011;6518;50.930;5.344;2023-07-29T04:46:32;3.83;;;1.75;;
12900;SDS011;6518;50.930;5.344;2023-07-29T04:49:01;3.88;;;2.05;;
12900;SDS011;6518;50.930;5.344;2023-07-29T04:51:28;4.30;;;2.05;;
12900;SDS011;6518;50.930;5.344;2023-07-29T04:53:56;5.05;;;2.17;;
12900;SDS011;6518;50.930;5.344;2023-07-29T04:56:23;4.10;;;2.00;;
12900;SDS011;6518;50.930;5.344;2023-07-29T04:58:50;2.53;;;1.70;;
12900;SDS011;6518;50.930;5.344;2023-07-29T05:01:18;3.90;;;1.92;;
12900;SDS011;6518;50.930;5.344;2023-07-29T05:03:44;2.97;;;1.92;;
12900;SDS011;6518;50.930;5.344;2023-07-29T05:06:13;3.22;;;2.00;;
12900;SDS011;6518;50.930;5.344;2023-07-29T05:08:40;5.38;;;2.33;;
12900;SDS011;6518;50.930;5.344;2023-07-29T05:11:06;4.55;;;2.20;;
12900;SDS011;6518;50.930;5.344;2023-07-29T05:13:33;2.33;;;2.10;;
12900;SDS011;6518;50.930;5.344;2023-07-29T05:16:00;4.88;;;2.22;;
12900;SDS011;6518;50.930;5.344;2023-07-29T05:18:27;4.00;;;2.10;;
12900;SDS011;6518;50.930;5.344;2023-07-29T05:20:54;2.88;;;1.92;;
12900;SDS011;6518;50.930;5.344;2023-07-29T05:23:23;2.35;;;2.15;;
12900;SDS011;6518;50.930;5.344;2023-07-29T05:25:50;2.75;;;1.90;;
12900;SDS011;6518;50.930;5.344;2023-07-29T05:28:17;4.95;;;2.17;;
12900;SDS011;6518;50.930;5.344;2023-07-29T05:30:44;3.33;;;1.88;;
12900;SDS011;6518;50.930;5.344;2023-07-29T05:33:11;5.88;;;2.10;;
12900;SDS011;6518;50.930;5.344;2023-07-29T05:35:38;2.72;;;1.90;;
12900;SDS011;6518;50.930;5.344;2023-07-29T05:38:05;5.55;;;2.08;;
12900;SDS011;6518;50.930;5.344;2023-07-29T05:40:34;2.35;;;1.67;;
12900;SDS011;6518;50.930;5.344;2023-07-29T05:43:01;2.30;;;1.98;;
12900;SDS011;6518;50.930;5.344;2023-07-29T05:45:29;3.10;;;1.70;;
12900;SDS011;6518;50.930;5.344;2023-07-29T05:47:56;3.45;;;2.08;;
12900;SDS011;6518;50.930;5.344;2023-07-29T05:50:23;3.90;;;2.00;;
12900;SDS011;6518;50.930;5.344;2023-07-29T05:52:50;5.32;;;1.75;;
12900;SDS011;6518;50.930;5.344;2023-07-29T05:55:17;5.05;;;1.88;;
12900;SDS011;6518;50.930;5.344;2023-07-29T05:57:45;4.35;;;2.05;;
12900;SDS011;6518;50.930;5.344;2023-07-29T06:00:12;6.03;;;2.10;;
12900;SDS011;6518;50.930;5.344;2023-07-29T06:02:39;3.88;;;1.83;;
12900;SDS011;6518;50.930;5.344;2023-07-29T06:05:06;5.10;;;1.63;;
12900;SDS011;6518;50.930;5.344;2023-07-29T06:07:33;3.83;;;1.75;;
12900;SDS011;6518;50.930;5.344;2023-07-29T06:10:00;2.25;;;1.40;;
12900;SDS011;6518;50.930;5.344;2023-07-29T06:12:27;5.82;;;1.80;;
12900;SDS011;6518;50.930;5.344;2023-07-29T06:14:55;3.08;;;1.60;;
12900;SDS011;6518;50.930;5.344;2023-07-29T06:17:22;5.10;;;1.60;;
12900;SDS011;6518;50.930;5.344;2023-07-29T06:19:49;1.75;;;1.40;;
12900;SDS011;6518;50.930;5.344;2023-07-29T06:22:16;3.38;;;1.48;;
12900;SDS011;6518;50.930;5.344;2023-07-29T06:24:43;3.35;;;1.90;;
12900;SDS011;6518;50.930;5.344;2023-07-29T06:27:09;3.30;;;1.48;;
12900;SDS011;6518;50.930;5.344;2023-07-29T06:29:36;2.72;;;1.75;;
12900;SDS011;6518;50.930;5.344;2023-07-29T06:32:05;2.88;;;1.83;;
12900;SDS011;6518;50.930;5.344;2023-07-29T06:34:32;2.50;;;1.60;;
12900;SDS011;6518;50.930;5.344;2023-07-29T06:36:59;2.30;;;1.52;;
12900;SDS011;6518;50.930;5.344;2023-07-29T06:39:26;3.50;;;1.65;;
12900;SDS011;6518;50.930;5.344;2023-07-29T06:41:54;2.45;;;1.73;;
12900;SDS011;6518;50.930;5.344;2023-07-29T06:44:21;2.53;;;1.55;;
12900;SDS011;6518;50.930;5.344;2023-07-29T06:46:48;2.25;;;1.45;;
12900;SDS011;6518;50.930;5.344;2023-07-29T06:49:16;3.85;;;1.38;;
12900;SDS011;6518;50.930;5.344;2023-07-29T06:51:43;2.72;;;1.60;;
12900;SDS011;6518;50.930;5.344;2023-07-29T06:54:10;2.53;;;1.60;;
12900;SDS011;6518;50.930;5.344;2023-07-29T06:56:36;2.35;;;1.60;;
12900;SDS011;6518;50.930;5.344;2023-07-29T06:59:03;8.82;;;2.00;;
12900;SDS011;6518;50.930;5.344;2023-07-29T07:01:30;2.95;;;1.63;;
12900;SDS011;6518;50.930;5.344;2023-07-29T07:03:57;4.38;;;1.70;;
12900;SDS011;6518;50.930;5.344;2023-07-29T07:06:25;3.20;;;1.50;;
12900;SDS011;6518;50.930;5.344;2023-07-29T07:08:52;2.58;;;1.38;;
12900;SDS011;6518;50.930;5.344;2023-07-29T07:11:19;3.53;;;1.30;;
12900;SDS011;6518;50.930;5.344;2023-07-29T07:13:46;3.15;;;1.50;;
12900;SDS011;6518;50.930;5.344;2023-07-29T07:16:12;1.63;;;1.20;;
12900;SDS011;6518;50.930;5.344;2023-07-29T07:18:39;2.33;;;1.42;;
12900;SDS011;6518;50.930;5.344;2023-07-29T07:21:06;1.60;;;1.20;;
12900;SDS011;6518;50.930;5.344;2023-07-29T07:23:34;1.88;;;1.10;;
12900;SDS011;6518;50.930;5.344;2023-07-29T07:26:01;4.07;;;1.58;;
12900;SDS011;6518;50.930;5.344;2023-07-29T07:28:28;3.22;;;1.50;;
12900;SDS011;6518;50.930;5.344;2023-07-29T07:30:55;3.22;;;1.20;;
12900;SDS011;6518;50.930;5.344;2023-07-29T07:33:22;4.05;;;1.38;;
12900;SDS011;6518;50.930;5.344;2023-07-29T07:35:49;3.63;;;1.50;;
12900;SDS011;6518;50.930;5.344;2023-07-29T07:38:16;4.25;;;1.45;;
12900;SDS011;6518;50.930;5.344;2023-07-29T07:40:46;3.50;;;1.60;;
12900;SDS011;6518;50.930;5.344;2023-07-29T07:43:19;3.22;;;1.58;;
12900;SDS011;6518;50.930;5.344;2023-07-29T07:45:46;4.32;;;1.67;;
12900;SDS011;6518;50.930;5.344;2023-07-29T07:48:13;5.72;;;1.77;;
12900;SDS011;6518;50.930;5.344;2023-07-29T07:50:41;2.95;;;1.52;;
12900;SDS011;6518;50.930;5.344;2023-07-29T07:53:08;2.58;;;1.55;;
12900;SDS011;6518;50.930;5.344;2023-07-29T07:55:35;4.68;;;1.30;;
12900;SDS011;6518;50.930;5.344;2023-07-29T07:58:04;3.63;;;1.50;;
12900;SDS011;6518;50.930;5.344;2023-07-29T08:00:30;3.08;;;1.58;;
12900;SDS011;6518;50.930;5.344;2023-07-29T08:02:57;8.15;;;1.70;;
12900;SDS011;6518;50.930;5.344;2023-07-29T08:05:24;2.65;;;1.60;;
12900;SDS011;6518;50.930;5.344;2023-07-29T08:07:51;2.15;;;1.30;;
12900;SDS011;6518;50.930;5.344;2023-07-29T08:10:18;5.63;;;1.25;;
12900;SDS011;6518;50.930;5.344;2023-07-29T08:12:45;5.40;;;1.73;;
12900;SDS011;6518;50.930;5.344;2023-07-29T08:15:13;3.50;;;1.40;;
12900;SDS011;6518;50.930;5.344;2023-07-29T08:17:40;5.88;;;1.45;;
12900;SDS011;6518;50.930;5.344;2023-07-29T08:20:07;2.55;;;1.60;;
12900;SDS011;6518;50.930;5.344;2023-07-29T08:22:35;2.85;;;1.40;;
12900;SDS011;6518;50.930;5.344;2023-07-29T08:25:02;4.43;;;1.48;;
12900;SDS011;6518;50.930;5.344;2023-07-29T08:27:29;3.03;;;1.30;;
12900;SDS011;6518;50.930;5.344;2023-07-29T08:29:56;2.63;;;1.38;;
12900;SDS011;6518;50.930;5.344;2023-07-29T08:32:24;2.47;;;1.20;;
12900;SDS011;6518;50.930;5.344;2023-07-29T08:34:51;1.55;;;1.30;;
12900;SDS011;6518;50.930;5.344;2023-07-29T08:37:18;2.40;;;1.20;;
12900;SDS011;6518;50.930;5.344;2023-07-29T08:39:44;2.10;;;1.40;;
12900;SDS011;6518;50.930;5.344;2023-07-29T08:42:11;2.03;;;1.40;;
12900;SDS011;6518;50.930;5.344;2023-07-29T08:44:40;2.13;;;1.33;;
12900;SDS011;6518;50.930;5.344;2023-07-29T08:47:08;2.25;;;1.35;;
12900;SDS011;6518;50.930;5.344;2023-07-29T08:49:36;2.45;;;1.35;;
12900;SDS011;6518;50.930;5.344;2023-07-29T08:52:04;3.30;;;1.30;;
12900;SDS011;6518;50.930;5.344;2023-07-29T08:54:32;2.92;;;1.30;;
12900;SDS011;6518;50.930;5.344;2023-07-29T08:56:59;1.58;;;1.20;;
12900;SDS011;6518;50.930;5.344;2023-07-29T08:59:27;2.80;;;1.13;;
12900;SDS011;6518;50.930;5.344;2023-07-29T09:01:55;3.35;;;1.35;;
12900;SDS011;6518;50.930;5.344;2023-07-29T09:04:23;2.90;;;1.40;;
12900;SDS011;6518;50.930;5.344;2023-07-29T09:06:51;3.00;;;1.20;;
12900;SDS011;6518;50.930;5.344;2023-07-29T09:09:21;1.50;;;1.00;;
12900;SDS011;6518;50.930;5.344;2023-07-29T09:11:49;3.72;;;1.10;;
12900;SDS011;6518;50.930;5.344;2023-07-29T09:14:16;1.98;;;1.15;;
12900;SDS011;6518;50.930;5.344;2023-07-29T09:16:43;2.08;;;1.30;;
12900;SDS011;6518;50.930;5.344;2023-07-29T09:19:11;3.70;;;1.38;;
12900;SDS011;6518;50.930;5.344;2023-07-29T09:21:38;2.70;;;1.05;;
12900;SDS011;6518;50.930;5.344;2023-07-29T09:24:07;2.15;;;1.30;;
12900;SDS011;6518;50.930;5.344;2023-07-29T09:26:35;2.03;;;1.20;;
12900;SDS011;6518;50.930;5.344;2023-07-29T09:29:02;1.33;;;1.20;;
12900;SDS011;6518;50.930;5.344;2023-07-29T09:31:29;2.83;;;1.20;;
12900;SDS011;6518;50.930;5.344;2023-07-29T09:33:56;4.07;;;1.35;;
12900;SDS011;6518;50.930;5.344;2023-07-29T09:36:24;2.38;;;1.73;;
12900;SDS011;6518;50.930;5.344;2023-07-29T09:38:54;4.28;;;1.48;;
12900;SDS011;6518;50.930;5.344;2023-07-29T09:41:23;3.05;;;1.40;;
12900;SDS011;6518;50.930;5.344;2023-07-29T09:43:55;5.05;;;1.50;;
12900;SDS011;6518;50.930;5.344;2023-07-29T09:46:23;2.55;;;1.38;;
12900;SDS011;6518;50.930;5.344;2023-07-29T09:48:52;1.48;;;1.25;;
12900;SDS011;6518;50.930;5.344;2023-07-29T09:51:20;3.70;;;1.17;;
12900;SDS011;6518;50.930;5.344;2023-07-29T09:53:48;2.13;;;1.23;;
12900;SDS011;6518;50.930;5.344;2023-07-29T09:56:16;3.45;;;1.17;;
12900;SDS011;6518;50.930;5.344;2023-07-29T09:58:45;1.77;;;1.20;;
12900;SDS011;6518;50.930;5.344;2023-07-29T10:01:12;2.17;;;1.13;;
12900;SDS011;6518;50.930;5.344;2023-07-29T10:03:41;1.65;;;1.20;;
12900;SDS011;6518;50.930;5.344;2023-07-29T10:06:10;2.58;;;1.25;;
12900;SDS011;6518;50.930;5.344;2023-07-29T10:08:38;3.75;;;1.20;;
12900;SDS011;6518;50.930;5.344;2023-07-29T10:11:07;2.90;;;1.35;;
12900;SDS011;6518;50.930;5.344;2023-07-29T10:13:34;2.33;;;1.30;;
12900;SDS011;6518;50.930;5.344;2023-07-29T10:16:03;1.52;;;1.30;;
12900;SDS011;6518;50.930;5.344;2023-07-29T10:18:31;2.25;;;1.33;;
12900;SDS011;6518;50.930;5.344;2023-07-29T10:20:59;4.20;;;1.30;;
12900;SDS011;6518;50.930;5.344;2023-07-29T10:23:27;4.72;;;1.30;;
12900;SDS011;6518;50.930;5.344;2023-07-29T10:25:59;1.60;;;1.20;;
12900;SDS011;6518;50.930;5.344;2023-07-29T10:28:30;3.35;;;1.40;;
12900;SDS011;6518;50.930;5.344;2023-07-29T10:30:57;2.63;;;1.30;;
12900;SDS011;6518;50.930;5.344;2023-07-29T10:33:26;3.35;;;1.17;;
12900;SDS011;6518;50.930;5.344;2023-07-29T10:35:53;1.63;;;1.30;;
12900;SDS011;6518;50.930;5.344;2023-07-29T10:38:21;1.77;;;1.30;;
12900;SDS011;6518;50.930;5.344;2023-07-29T10:40:50;4.55;;;1.20;;
12900;SDS011;6518;50.930;5.344;2023-07-29T10:43:24;1.77;;;1.48;;
12900;SDS011;6518;50.930;5.344;2023-07-29T10:45:51;2.17;;;1.20;;
12900;SDS011;6518;50.930;5.344;2023-07-29T10:51:22;3.25;;;1.20;;
12900;SDS011;6518;50.930;5.344;2023-07-29T10:53:54;5.78;;;1.60;;
12900;SDS011;6518;50.930;5.344;2023-07-29T10:56:29;2.45;;;1.40;;
12900;SDS011;6518;50.930;5.344;2023-07-29T10:58:58;1.73;;;1.30;;
12900;SDS011;6518;50.930;5.344;2023-07-29T11:01:30;2.17;;;1.30;;
12900;SDS011;6518;50.930;5.344;2023-07-29T11:09:53;2.53;;;1.52;;
12900;SDS011;6518;50.930;5.344;2023-07-29T11:12:38;2.60;;;1.70;;
12900;SDS011;6518;50.930;5.344;2023-07-29T11:15:23;1.60;;;1.42;;
12900;SDS011;6518;50.930;5.344;2023-07-29T11:17:52;2.72;;;1.40;;
12900;SDS011;6518;50.930;5.344;2023-07-29T11:20:22;2.08;;;1.35;;
12900;SDS011;6518;50.930;5.344;2023-07-29T11:22:50;3.38;;;1.40;;
12900;SDS011;6518;50.930;5.344;2023-07-29T11:25:17;4.07;;;1.83;;
12900;SDS011;6518;50.930;5.344;2023-07-29T11:27:45;3.15;;;1.50;;
12900;SDS011;6518;50.930;5.344;2023-07-29T11:30:13;4.80;;;1.95;;
12900;SDS011;6518;50.930;5.344;2023-07-29T11:32:41;2.33;;;1.70;;
12900;SDS011;6518;50.930;5.344;2023-07-29T11:35:10;3.80;;;2.20;;
12900;SDS011;6518;50.930;5.344;2023-07-29T11:37:41;3.70;;;2.13;;
12900;SDS011;6518;50.930;5.344;2023-07-29T11:40:12;2.72;;;1.92;;
12900;SDS011;6518;50.930;5.344;2023-07-29T11:42:40;2.42;;;1.70;;
12900;SDS011;6518;50.930;5.344;2023-07-29T11:45:08;2.38;;;1.63;;
12900;SDS011;6518;50.930;5.344;2023-07-29T11:47:35;3.03;;;1.90;;
12900;SDS011;6518;50.930;5.344;2023-07-29T11:50:03;2.45;;;1.98;;
12900;SDS011;6518;50.930;5.344;2023-07-29T11:52:31;3.42;;;2.10;;
12900;SDS011;6518;50.930;5.344;2023-07-29T11:55:01;4.47;;;1.77;;
12900;SDS011;6518;50.930;5.344;2023-07-29T11:57:28;1.98;;;1.80;;
12900;SDS011;6518;50.930;5.344;2023-07-29T11:59:56;4.32;;;2.33;;
12900;SDS011;6518;50.930;5.344;2023-07-29T12:02:23;3.03;;;2.00;;
12900;SDS011;6518;50.930;5.344;2023-07-29T12:04:51;3.70;;;2.20;;
12900;SDS011;6518;50.930;5.344;2023-07-29T12:07:18;4.72;;;2.17;;
12900;SDS011;6518;50.930;5.344;2023-07-29T12:09:46;4.22;;;2.13;;
12900;SDS011;6518;50.930;5.344;2023-07-29T12:12:15;4.13;;;1.95;;
12900;SDS011;6518;50.930;5.344;2023-07-29T12:14:43;2.13;;;1.92;;
12900;SDS011;6518;50.930;5.344;2023-07-29T12:17:11;3.55;;;2.42;;
12900;SDS011;6518;50.930;5.344;2023-07-29T12:19:39;2.53;;;2.15;;
12900;SDS011;6518;50.930;5.344;2023-07-29T12:22:07;4.07;;;2.70;;
12900;SDS011;6518;50.930;5.344;2023-07-29T12:24:35;4.72;;;3.00;;
12900;SDS011;6518;50.930;5.344;2023-07-29T12:27:03;3.47;;;2.35;;
12900;SDS011;6518;50.930;5.344;2023-07-29T12:29:32;4.53;;;2.92;;
12900;SDS011;6518;50.930;5.344;2023-07-29T12:32:06;5.20;;;2.75;;
12900;SDS011;6518;50.930;5.344;2023-07-29T12:34:33;6.13;;;2.80;;
12900;SDS011;6518;50.930;5.344;2023-07-29T12:37:02;4.63;;;2.90;;
12900;SDS011;6518;50.930;5.344;2023-07-29T12:39:30;3.17;;;2.13;;
12900;SDS011;6518;50.930;5.344;2023-07-29T12:41:59;2.67;;;1.90;;
12900;SDS011;6518;50.930;5.344;2023-07-29T12:44:29;4.00;;;1.65;;
12900;SDS011;6518;50.930;5.344;2023-07-29T12:46:58;2.67;;;2.00;;
12900;SDS011;6518;50.930;5.344;2023-07-29T12:49:26;3.47;;;1.80;;
12900;SDS011;6518;50.930;5.344;2023-07-29T12:51:54;3.53;;;1.70;;
12900;SDS011;6518;50.930;5.344;2023-07-29T12:54:21;1.90;;;1.45;;
12900;SDS011;6518;50.930;5.344;2023-07-29T12:56:48;3.58;;;1.80;;
12900;SDS011;6518;50.930;5.344;2023-07-29T12:59:15;3.28;;;1.55;;
12900;SDS011;6518;50.930;5.344;2023-07-29T13:01:43;2.50;;;1.70;;
12900;SDS011;6518;50.930;5.344;2023-07-29T13:04:10;2.40;;;1.52;;
12900;SDS011;6518;50.930;5.344;2023-07-29T13:06:37;2.03;;;1.50;;
12900;SDS011;6518;50.930;5.344;2023-07-29T13:09:04;1.63;;;1.40;;
12900;SDS011;6518;50.930;5.344;2023-07-29T13:11:31;1.92;;;1.63;;
12900;SDS011;6518;50.930;5.344;2023-07-29T13:13:58;1.83;;;1.70;;
12900;SDS011;6518;50.930;5.344;2023-07-29T13:16:26;3.13;;;1.85;;
12900;SDS011;6518;50.930;5.344;2023-07-29T13:18:54;2.70;;;1.80;;
12900;SDS011;6518;50.930;5.344;2023-07-29T13:21:21;3.97;;;1.90;;
12900;SDS011;6518;50.930;5.344;2023-07-29T13:23:49;3.85;;;1.65;;
12900;SDS011;6518;50.930;5.344;2023-07-29T13:26:15;2.08;;;1.77;;
12900;SDS011;6518;50.930;5.344;2023-07-29T13:28:42;3.00;;;1.83;;
12900;SDS011;6518;50.930;5.344;2023-07-29T13:31:09;3.72;;;2.15;;
12900;SDS011;6518;50.930;5.344;2023-07-29T13:33:36;2.05;;;1.88;;
12900;SDS011;6518;50.930;5.344;2023-07-29T13:36:05;2.88;;;2.00;;
12900;SDS011;6518;50.930;5.344;2023-07-29T13:38:33;3.85;;;2.20;;
12900;SDS011;6518;50.930;5.344;2023-07-29T13:41:00;2.83;;;2.05;;
12900;SDS011;6518;50.930;5.344;2023-07-29T13:43:27;2.97;;;2.20;;
12900;SDS011;6518;50.930;5.344;2023-07-29T13:45:54;4.82;;;2.30;;
12900;SDS011;6518;50.930;5.344;2023-07-29T13:48:20;7.10;;;2.63;;
12900;SDS011;6518;50.930;5.344;2023-07-29T13:50:47;3.22;;;2.15;;
12900;SDS011;6518;50.930;5.344;2023-07-29T13:53:16;3.83;;;2.40;;
12900;SDS011;6518;50.930;5.344;2023-07-29T13:55:42;5.57;;;2.15;;
12900;SDS011;6518;50.930;5.344;2023-07-29T13:58:09;3.92;;;2.28;;
12900;SDS011;6518;50.930;5.344;2023-07-29T14:00:36;2.00;;;1.80;;
12900;SDS011;6518;50.930;5.344;2023-07-29T14:03:03;4.40;;;1.83;;
12900;SDS011;6518;50.930;5.344;2023-07-29T14:05:30;2.47;;;1.80;;
12900;SDS011;6518;50.930;5.344;2023-07-29T14:07:57;3.50;;;1.58;;
12900;SDS011;6518;50.930;5.344;2023-07-29T14:10:25;2.85;;;1.70;;
12900;SDS011;6518;50.930;5.344;2023-07-29T14:12:52;2.28;;;1.52;;
12900;SDS011;6518;50.930;5.344;2023-07-29T14:15:19;1.70;;;1.60;;
12900;SDS011;6518;50.930;5.344;2023-07-29T14:17:47;3.28;;;1.60;;
12900;SDS011;6518;50.930;5.344;2023-07-29T14:20:13;2.88;;;2.00;;
12900;SDS011;6518;50.930;5.344;2023-07-29T14:22:40;3.38;;;1.63;;
12900;SDS011;6518;50.930;5.344;2023-07-29T14:25:07;1.58;;;1.48;;
12900;SDS011;6518;50.930;5.344;2023-07-29T14:27:36;2.20;;;1.70;;
12900;SDS011;6518;50.930;5.344;2023-07-29T14:30:03;2.50;;;1.60;;
12900;SDS011;6518;50.930;5.344;2023-07-29T14:32:30;1.45;;;1.33;;
12900;SDS011;6518;50.930;5.344;2023-07-29T14:34:57;1.40;;;1.30;;
12900;SDS011;6518;50.930;5.344;2023-07-29T14:37:28;2.28;;;1.35;;
12900;SDS011;6518;50.930;5.344;2023-07-29T14:39:55;2.17;;;1.20;;
12900;SDS011;6518;50.930;5.344;2023-07-29T14:42:22;1.58;;;1.20;;
12900;SDS011;6518;50.930;5.344;2023-07-29T14:44:51;2.65;;;1.15;;
12900;SDS011;6518;50.930;5.344;2023-07-29T14:47:18;1.42;;;1.10;;
12900;SDS011;6518;50.930;5.344;2023-07-29T14:49:45;1.67;;;1.08;;
12900;SDS011;6518;50.930;5.344;2023-07-29T14:52:11;1.60;;;1.40;;
12900;SDS011;6518;50.930;5.344;2023-07-29T14:54:38;1.42;;;1.02;;
12900;SDS011;6518;50.930;5.344;2023-07-29T14:57:05;1.23;;;1.13;;
12900;SDS011;6518;50.930;5.344;2023-07-29T14:59:33;1.30;;;1.20;;
12900;SDS011;6518;50.930;5.344;2023-07-29T15:02:01;1.73;;;1.20;;
12900;SDS011;6518;50.930;5.344;2023-07-29T15:04:28;1.50;;;1.10;;
12900;SDS011;6518;50.930;5.344;2023-07-29T15:06:54;1.80;;;1.10;;
12900;SDS011;6518;50.930;5.344;2023-07-29T15:09:22;1.88;;;1.30;;
12900;SDS011;6518;50.930;5.344;2023-07-29T15:11:49;1.38;;;1.27;;